Time;durP1;ratioP1;P1;durP2;ratioP2;P2;SDS_P1;SDS_P2;PMS_P1;PMS_P2;Temp;Humidity;BMP_temperature;BMP_pressure;BME280_temperature;BME280_humidity;BME280_pressure;Samples;Min_cycle;Max_cycle;Signal;HPM_P1;HPM_P2
2021/07/06 00:00:27;;;;;;;2.83;1.30;;;18.50;72.20;;;;;;5024227;28;20021;-70
2021/07/06 00:02:52;;;;;;;3.78;1.23;;;18.60;72.10;;;;;;5024712;28;20057;-70
2021/07/06 00:05:18;;;;;;;2.30;1.50;;;18.50;72.10;;;;;;5024458;28;20071;-70
2021/07/06 00:07:46;;;;;;;2.63;1.55;;;18.30;72.70;;;;;;5025272;28;20034;-70
2021/07/06 00:10:12;;;;;;;2.88;1.48;;;18.30;73.10;;;;;;5007886;28;20218;-70
2021/07/06 00:12:37;;;;;;;2.40;1.35;;;18.30;73.20;;;;;;5023951;28;20036;-70
2021/07/06 00:15:05;;;;;;;3.03;1.40;;;18.30;73.20;;;;;;5025486;28;20040;-70
2021/07/06 00:17:30;;;;;;;2.60;1.50;;;18.30;73.00;;;;;;5040717;28;20045;-70
2021/07/06 00:19:56;;;;;;;3.60;1.23;;;18.30;72.90;;;;;;5023571;28;20049;-70
2021/07/06 00:22:22;;;;;;;3.17;2.03;;;18.20;73.10;;;;;;5024940;28;20046;-69
2021/07/06 00:24:48;;;;;;;3.70;1.30;;;18.10;73.40;;;;;;5024834;28;20026;-70
2021/07/06 00:27:13;;;;;;;3.45;1.40;;;18.10;73.30;;;;;;5024309;28;20085;-70
2021/07/06 00:29:39;;;;;;;3.25;1.20;;;18.20;73.20;;;;;;5025332;28;20034;-70
2021/07/06 00:32:05;;;;;;;4.28;1.67;;;18.10;73.50;;;;;;5024813;28;20094;-70
2021/07/06 00:34:30;;;;;;;1.75;1.23;;;18.10;73.20;;;;;;5024856;28;20038;-69
2021/07/06 00:36:56;;;;;;;4.53;1.30;;;17.80;73.90;;;;;;5024688;28;20316;-70
2021/07/06 00:39:21;;;;;;;2.47;1.40;;;17.80;74.20;;;;;;5025133;28;20049;-70
2021/07/06 00:41:47;;;;;;;2.80;1.30;;;17.90;73.90;;;;;;5025023;28;20030;-70
2021/07/06 00:44:16;;;;;;;5.03;1.33;;;18.20;72.90;;;;;;5024946;28;20038;-70
2021/07/06 00:46:42;;;;;;;2.17;1.20;;;18.10;73.40;;;;;;5024790;28;20226;-70
2021/07/06 00:49:07;;;;;;;2.45;1.15;;;17.90;73.60;;;;;;5024584;28;20044;-69
2021/07/06 00:51:33;;;;;;;2.72;1.20;;;17.80;73.60;;;;;;5024479;28;20052;-70
2021/07/06 00:53:59;;;;;;;3.33;1.48;;;17.70;74.20;;;;;;5024297;28;20038;-70
2021/07/06 00:56:25;;;;;;;2.65;1.30;;;17.80;74.20;;;;;;5025199;28;20049;-70
2021/07/06 00:58:50;;;;;;;2.05;1.10;;;17.90;73.80;;;;;;5024803;28;20034;-70
2021/07/06 01:01:16;;;;;;;2.70;1.27;;;18.10;73.30;;;;;;5024415;28;20054;-70
2021/07/06 01:03:42;;;;;;;1.83;1.33;;;18.10;73.20;;;;;;5023255;28;20037;-70
2021/07/06 01:06:08;;;;;;;2.53;1.10;;;18.20;72.90;;;;;;5023838;28;20317;-70
2021/07/06 01:08:34;;;;;;;6.22;1.30;;;18.20;73.00;;;;;;5023568;28;20041;-70
2021/07/06 01:11:00;;;;;;;3.10;1.30;;;18.30;72.50;;;;;;5022978;28;20057;-70
2021/07/06 01:13:27;;;;;;;3.10;1.20;;;18.10;72.80;;;;;;5023015;28;20030;-70
2021/07/06 01:15:53;;;;;;;4.63;1.48;;;17.90;73.50;;;;;;5022817;28;20346;-70
2021/07/06 01:18:19;;;;;;;1.70;1.20;;;18.00;73.30;;;;;;5024421;28;20076;-70
2021/07/06 01:20:49;;;;;;;4.22;1.50;;;17.90;73.40;;;;;;5039749;28;20194;-70
2021/07/06 01:23:16;;;;;;;8.50;1.20;;;17.80;73.70;;;;;;5023808;28;20114;-70
2021/07/06 01:25:42;;;;;;;2.65;1.42;;;18.00;73.10;;;;;;5023982;28;20229;-70
2021/07/06 01:28:08;;;;;;;2.35;1.25;;;18.10;73.10;;;;;;5024025;28;20053;-70
2021/07/06 01:30:33;;;;;;;10.00;1.70;;;18.00;73.20;;;;;;5022808;28;20034;-70
2021/07/06 01:32:59;;;;;;;2.90;1.33;;;18.00;73.20;;;;;;5023507;28;20118;-70
2021/07/06 01:35:25;;;;;;;2.65;1.30;;;18.10;73.10;;;;;;5024182;28;20061;-70
2021/07/06 01:37:59;;;;;;;4.13;1.45;;;18.20;72.90;;;;;;5022518;28;20038;-70
2021/07/06 01:40:26;;;;;;;2.17;1.27;;;18.20;72.40;;;;;;5023012;28;20045;-70
2021/07/06 01:42:52;;;;;;;4.93;1.27;;;18.10;73.00;;;;;;5006193;28;20203;-70
2021/07/06 01:45:19;;;;;;;2.58;1.20;;;18.10;72.70;;;;;;5023071;28;20037;-70
2021/07/06 01:47:47;;;;;;;2.42;1.20;;;17.80;73.50;;;;;;5003103;28;20042;-70
2021/07/06 01:50:15;;;;;;;1.52;1.13;;;17.90;73.60;;;;;;5034825;28;20379;-70
2021/07/06 01:52:45;;;;;;;4.43;1.35;;;18.00;73.30;;;;;;5022597;28;20050;-69
2021/07/06 01:55:11;;;;;;;3.80;1.30;;;17.80;73.30;;;;;;5023447;28;20041;-70
2021/07/06 01:57:39;;;;;;;8.50;1.30;;;17.80;73.70;;;;;;5006148;28;20033;-70
2021/07/06 02:00:09;;;;;;;3.15;1.40;;;17.80;73.70;;;;;;5023263;28;20244;-70
2021/07/06 02:02:34;;;;;;;3.10;1.35;;;17.90;73.50;;;;;;5023154;28;20045;-70
2021/07/06 02:05:23;;;;;;;4.95;1.33;;;18.00;73.30;;;;;;5023523;28;20034;-70
2021/07/06 02:07:49;;;;;;;2.22;1.20;;;18.00;72.90;;;;;;5022364;28;20260;-70
2021/07/06 02:10:15;;;;;;;2.95;1.20;;;17.90;73.30;;;;;;5023927;28;20030;-70
2021/07/06 02:12:41;;;;;;;1.90;1.20;;;17.90;72.90;;;;;;5022356;28;20092;-70
2021/07/06 02:15:08;;;;;;;5.13;1.25;;;17.80;73.20;;;;;;5023817;28;20061;-70
2021/07/06 02:17:34;;;;;;;6.40;1.60;;;17.90;73.40;;;;;;5022738;28;20052;-70
2021/07/06 02:19:59;;;;;;;3.47;1.60;;;17.90;72.90;;;;;;5023328;28;20034;-70
2021/07/06 02:22:25;;;;;;;3.40;1.30;;;17.90;72.80;;;;;;5023139;28;20046;-70
2021/07/06 02:24:50;;;;;;;2.03;1.30;;;17.80;73.30;;;;;;5023742;28;20076;-70
2021/07/06 02:27:16;;;;;;;4.40;1.60;;;17.80;73.60;;;;;;5022872;28;20077;-70
2021/07/06 02:29:42;;;;;;;5.55;1.50;;;17.80;73.70;;;;;;5038470;28;20333;-70
2021/07/06 02:32:08;;;;;;;3.95;1.30;;;17.80;73.60;;;;;;5023582;28;20038;-70
2021/07/06 02:34:33;;;;;;;2.33;1.30;;;17.80;73.10;;;;;;5023391;28;20037;-70
2021/07/06 02:36:59;;;;;;;3.13;1.45;;;17.70;73.70;;;;;;5022204;28;20034;-70
2021/07/06 02:39:24;;;;;;;4.78;1.38;;;17.60;74.00;;;;;;5023471;28;20041;-70
2021/07/06 02:41:50;;;;;;;2.40;1.05;;;17.40;74.30;;;;;;5023934;28;20026;-70
2021/07/06 02:44:16;;;;;;;2.63;1.35;;;17.30;74.60;;;;;;5023622;28;20042;-70
2021/07/06 02:46:41;;;;;;;2.10;1.40;;;17.40;74.80;;;;;;5023350;28;20034;-70
2021/07/06 02:49:07;;;;;;;2.88;1.30;;;17.60;74.30;;;;;;5023057;28;20057;-70
2021/07/06 02:51:34;;;;;;;4.07;1.40;;;17.40;74.00;;;;;;5024848;28;20038;-70
2021/07/06 02:54:00;;;;;;;1.58;1.23;;;17.30;74.50;;;;;;5027270;28;20317;-70
2021/07/06 02:56:26;;;;;;;10.30;1.58;;;17.20;74.90;;;;;;5025892;28;20042;-70
2021/07/06 02:58:51;;;;;;;4.50;1.42;;;17.50;74.30;;;;;;5026819;28;20249;-70
2021/07/06 03:01:17;;;;;;;4.05;1.45;;;17.40;74.10;;;;;;5025457;28;20064;-70
2021/07/06 03:03:42;;;;;;;4.15;1.55;;;17.50;73.60;;;;;;5026634;28;20034;-70
2021/07/06 03:06:08;;;;;;;1.77;1.17;;;17.60;73.80;;;;;;5025741;28;20080;-70
2021/07/06 03:08:34;;;;;;;2.03;1.20;;;17.60;73.90;;;;;;5025737;28;20040;-70
2021/07/06 03:11:00;;;;;;;2.83;1.52;;;17.50;73.90;;;;;;5026699;28;20081;-70
2021/07/06 03:13:25;;;;;;;1.90;1.17;;;17.40;74.40;;;;;;5025521;28;20037;-70
2021/07/06 03:15:51;;;;;;;2.40;1.17;;;17.40;74.60;;;;;;5041659;28;20057;-70
2021/07/06 03:18:16;;;;;;;3.15;1.30;;;17.30;74.50;;;;;;5026640;28;20061;-70
2021/07/06 03:20:42;;;;;;;1.85;1.25;;;17.40;74.20;;;;;;5026097;28;20038;-70
2021/07/06 03:23:08;;;;;;;2.90;1.42;;;17.50;74.00;;;;;;5025158;28;20053;-70
2021/07/06 03:25:33;;;;;;;3.97;1.20;;;17.50;74.00;;;;;;5041562;28;20045;-70
2021/07/06 03:28:00;;;;;;;5.18;1.50;;;17.30;74.30;;;;;;5024896;28;20191;-69
2021/07/06 03:30:29;;;;;;;2.03;1.20;;;17.40;74.10;;;;;;5024862;28;20352;-70
2021/07/06 03:32:57;;;;;;;3.15;1.20;;;17.30;74.30;;;;;;5025543;28;20038;-70
2021/07/06 03:35:22;;;;;;;3.67;1.20;;;17.30;74.50;;;;;;5026326;28;20038;-70
2021/07/06 03:37:48;;;;;;;2.95;1.40;;;17.40;74.10;;;;;;5026078;28;20116;-70
2021/07/06 03:40:13;;;;;;;3.28;1.30;;;17.50;73.80;;;;;;5025930;28;20030;-70
2021/07/06 03:42:39;;;;;;;3.60;1.80;;;17.50;74.00;;;;;;5026179;28;20041;-70
2021/07/06 03:45:06;;;;;;;1.75;1.30;;;17.60;73.90;;;;;;5026465;28;20026;-70
2021/07/06 03:47:32;;;;;;;2.58;1.25;;;17.40;74.10;;;;;;5025116;28;20248;-70
2021/07/06 03:49:57;;;;;;;3.20;1.30;;;17.40;74.20;;;;;;5025549;28;20040;-70
2021/07/06 03:52:23;;;;;;;2.80;1.40;;;17.50;73.80;;;;;;5025794;28;20038;-70
2021/07/06 03:54:48;;;;;;;1.45;1.02;;;17.70;73.20;;;;;;5025364;28;20145;-70
2021/07/06 03:57:14;;;;;;;2.17;1.30;;;17.60;73.50;;;;;;5025884;28;20037;-70
2021/07/06 03:59:40;;;;;;;3.00;0.98;;;17.70;73.40;;;;;;5025891;28;20041;-70
2021/07/06 04:02:05;;;;;;;2.85;1.25;;;17.60;73.70;;;;;;5025424;28;20038;-70
2021/07/06 04:04:32;;;;;;;2.42;1.27;;;17.60;73.50;;;;;;5025273;28;20033;-70
2021/07/06 04:06:57;;;;;;;4.05;1.00;;;17.40;73.90;;;;;;5040864;28;20045;-69
2021/07/06 04:09:23;;;;;;;2.97;1.30;;;17.40;73.90;;;;;;5025406;28;20064;-69
2021/07/06 04:11:48;;;;;;;2.70;1.40;;;17.40;74.20;;;;;;5024572;28;20317;-70
2021/07/06 04:14:14;;;;;;;5.18;1.52;;;17.60;74.10;;;;;;5025515;28;20226;-70
2021/07/06 04:16:39;;;;;;;3.85;1.10;;;17.60;74.00;;;;;;5025048;28;20206;-70
2021/07/06 04:19:06;;;;;;;3.33;1.30;;;17.60;73.80;;;;;;5025445;28;20030;-69
2021/07/06 04:21:35;;;;;;;3.58;1.40;;;17.80;73.60;;;;;;5024645;28;20049;-69
2021/07/06 04:24:01;;;;;;;1.95;1.15;;;17.80;73.50;;;;;;5025439;28;20325;-70
2021/07/06 04:26:27;;;;;;;2.05;1.33;;;17.80;73.20;;;;;;5025346;28;20080;-70
2021/07/06 04:28:52;;;;;;;2.30;1.50;;;17.80;73.40;;;;;;5025206;28;20038;-70
2021/07/06 04:31:18;;;;;;;3.08;1.55;;;17.80;73.50;;;;;;5023655;28;20030;-70
2021/07/06 04:33:43;;;;;;;6.28;1.40;;;17.80;74.00;;;;;;5024693;28;20042;-70
2021/07/06 04:36:09;;;;;;;5.13;1.50;;;17.80;74.30;;;;;;5024145;28;20026;-70
2021/07/06 04:38:34;;;;;;;3.25;1.20;;;17.70;74.30;;;;;;5025083;28;20329;-70
2021/07/06 04:41:00;;;;;;;2.50;1.17;;;17.70;74.30;;;;;;5023796;28;20033;-70
2021/07/06 04:43:25;;;;;;;3.53;1.30;;;17.80;74.20;;;;;;5023466;28;20038;-70
2021/07/06 04:45:51;;;;;;;3.88;1.38;;;17.90;74.00;;;;;;5024555;28;20053;-70
2021/07/06 04:48:16;;;;;;;2.15;1.13;;;17.80;74.00;;;;;;5025480;28;20034;-71
2021/07/06 04:50:42;;;;;;;4.57;1.40;;;17.80;74.20;;;;;;5023886;28;20229;-71
2021/07/06 04:53:08;;;;;;;5.55;1.25;;;17.80;73.70;;;;;;5024729;28;20033;-71
2021/07/06 04:55:35;;;;;;;4.50;1.30;;;18.00;73.80;;;;;;5023417;28;20049;-71
2021/07/06 04:58:01;;;;;;;5.15;1.27;;;18.00;73.70;;;;;;4990821;28;20075;-72
2021/07/06 05:00:27;;;;;;;2.63;1.23;;;18.00;73.30;;;;;;5023658;28;20089;-72
2021/07/06 05:02:52;;;;;;;2.88;1.10;;;18.10;73.30;;;;;;5040171;28;20045;-72
2021/07/06 05:05:19;;;;;;;8.82;1.70;;;18.10;73.60;;;;;;5023099;28;20349;-73
2021/07/06 05:07:44;;;;;;;5.65;1.40;;;18.00;74.00;;;;;;5024193;28;20038;-73
2021/07/06 05:10:11;;;;;;;5.20;1.40;;;18.00;74.10;;;;;;5024281;28;20033;-72
2021/07/06 05:12:37;;;;;;;2.53;1.08;;;18.00;74.10;;;;;;5022622;28;20053;-72
2021/07/06 05:15:04;;;;;;;4.43;1.45;;;18.00;74.10;;;;;;5006832;28;20033;-73
2021/07/06 05:17:29;;;;;;;5.88;1.15;;;18.20;73.70;;;;;;5023404;28;20040;-73
2021/07/06 05:19:55;;;;;;;2.47;1.15;;;18.30;73.80;;;;;;5022643;28;20356;-73
2021/07/06 05:22:21;;;;;;;4.95;1.42;;;18.30;73.50;;;;;;5022439;28;20046;-73
2021/07/06 05:24:47;;;;;;;1.73;1.33;;;18.30;73.30;;;;;;5023983;28;20340;-72
2021/07/06 05:27:13;;;;;;;3.40;1.63;;;18.30;73.20;;;;;;5024309;28;20034;-72
2021/07/06 05:29:38;;;;;;;1.42;1.10;;;18.40;73.10;;;;;;5024357;28;20093;-71
2021/07/06 05:32:04;;;;;;;2.30;1.30;;;18.40;74.00;;;;;;5024195;28;20034;-71
2021/07/06 05:34:30;;;;;;;3.58;1.20;;;18.40;73.50;;;;;;5024057;28;20325;-71
2021/07/06 05:36:55;;;;;;;5.40;1.35;;;18.40;73.70;;;;;;5022614;28;20054;-71
2021/07/06 05:39:21;;;;;;;3.42;1.20;;;18.60;73.20;;;;;;5023630;28;20088;-71
2021/07/06 05:41:47;;;;;;;3.35;1.20;;;18.60;73.20;;;;;;5023034;28;20034;-71
2021/07/06 05:44:12;;;;;;;1.95;1.20;;;18.60;73.40;;;;;;5022310;28;20237;-71
2021/07/06 05:46:38;;;;;;;2.28;1.42;;;18.60;73.70;;;;;;5022247;28;20038;-71
2021/07/06 05:49:03;;;;;;;5.00;1.20;;;18.70;73.50;;;;;;5023552;28;20057;-71
2021/07/06 05:51:29;;;;;;;2.22;1.30;;;18.70;73.50;;;;;;5022479;28;20030;-71
2021/07/06 05:53:55;;;;;;;4.00;1.40;;;18.80;73.40;;;;;;5023875;28;20029;-71
2021/07/06 05:56:20;;;;;;;3.00;1.30;;;18.80;73.10;;;;;;5023977;28;20034;-71
2021/07/06 05:58:46;;;;;;;2.83;1.40;;;18.80;73.20;;;;;;5022529;28;20076;-71
2021/07/06 06:01:12;;;;;;;2.03;1.33;;;18.80;73.20;;;;;;5023686;28;20038;-72
2021/07/06 06:03:38;;;;;;;2.53;1.10;;;18.90;72.90;;;;;;5022663;28;20209;-71
2021/07/06 06:06:03;;;;;;;2.97;1.25;;;18.90;73.20;;;;;;5024172;28;20214;-72
2021/07/06 06:08:29;;;;;;;2.85;1.40;;;19.00;72.70;;;;;;5022820;28;20056;-72
2021/07/06 06:10:54;;;;;;;2.00;1.30;;;18.90;72.90;;;;;;5022167;28;20098;-72
2021/07/06 06:13:20;;;;;;;2.03;1.50;;;19.00;73.10;;;;;;5022299;28;20060;-72
2021/07/06 06:15:45;;;;;;;8.45;1.80;;;19.00;73.30;;;;;;5022216;28;20034;-71
2021/07/06 06:18:11;;;;;;;6.65;2.08;;;19.10;72.90;;;;;;5023743;28;20137;-72
2021/07/06 06:20:36;;;;;;;4.65;1.42;;;19.20;72.90;;;;;;5022137;28;20351;-71
2021/07/06 06:23:04;;;;;;;2.40;1.20;;;19.30;72.70;;;;;;5005634;28;20061;-72
2021/07/06 06:25:29;;;;;;;2.65;1.20;;;19.30;72.90;;;;;;5024826;28;20084;-72
2021/07/06 06:27:55;;;;;;;4.90;1.60;;;19.30;72.90;;;;;;5025933;28;20081;-72
2021/07/06 06:30:21;;;;;;;3.55;1.40;;;19.30;72.70;;;;;;5026018;28;20034;-71
2021/07/06 06:32:46;;;;;;;4.35;1.70;;;19.40;72.90;;;;;;5027413;28;20038;-71
2021/07/06 06:35:12;;;;;;;1.98;1.30;;;19.40;72.50;;;;;;5027239;28;20041;-71
2021/07/06 06:37:37;;;;;;;2.17;1.20;;;19.60;72.40;;;;;;5026265;28;20097;-71
2021/07/06 06:40:04;;;;;;;4.38;1.40;;;19.60;72.10;;;;;;5027963;28;20187;-72
2021/07/06 06:42:29;;;;;;;2.67;1.60;;;19.70;72.00;;;;;;5026284;28;20061;-72
2021/07/06 06:44:55;;;;;;;4.13;1.48;;;19.80;72.40;;;;;;5028081;28;20045;-72
2021/07/06 06:47:20;;;;;;;2.03;1.27;;;19.90;72.40;;;;;;5026987;28;20038;-72
2021/07/06 06:49:46;;;;;;;2.95;1.45;;;20.00;71.50;;;;;;5026570;28;20399;-72
2021/07/06 06:52:12;;;;;;;2.42;1.30;;;20.00;70.90;;;;;;5026728;28;20038;-71
2021/07/06 06:54:38;;;;;;;3.22;1.20;;;20.20;71.20;;;;;;5042214;28;20041;-71
2021/07/06 06:57:04;;;;;;;2.40;1.40;;;20.30;71.30;;;;;;5027475;28;20036;-72
2021/07/06 06:59:30;;;;;;;3.90;1.40;;;20.30;70.90;;;;;;5025838;28;20037;-71
2021/07/06 07:04:40;;;;;;;2.50;1.45;;;20.50;71.90;;;;;;5026527;28;20053;-72
2021/07/06 07:07:05;;;;;;;4.47;1.48;;;20.60;70.90;;;;;;5024347;28;20337;-70
2021/07/06 07:09:31;;;;;;;2.33;1.20;;;20.70;69.60;;;;;;5008756;28;20053;-70
2021/07/06 07:11:56;;;;;;;2.40;1.20;;;20.70;68.50;;;;;;5026698;28;20038;-70
2021/07/06 07:14:22;;;;;;;4.95;1.10;;;20.80;69.00;;;;;;5025369;28;20161;-70
2021/07/06 07:16:48;;;;;;;5.88;1.20;;;20.80;68.20;;;;;;5026250;28;20185;-70
2021/07/06 07:19:14;;;;;;;7.03;1.27;;;20.90;69.80;;;;;;5024924;28;20224;-71
2021/07/06 07:21:39;;;;;;;2.72;1.10;;;21.10;70.20;;;;;;5024987;28;20050;-71
2021/07/06 07:24:05;;;;;;;2.00;1.02;;;21.20;70.40;;;;;;5025486;28;20309;-72
2021/07/06 07:26:31;;;;;;;4.22;1.10;;;21.30;69.10;;;;;;5026544;28;20038;-72
2021/07/06 07:28:57;;;;;;;2.72;1.10;;;21.30;69.20;;;;;;5025385;28;20042;-72
2021/07/06 07:31:23;;;;;;;6.20;1.40;;;21.50;68.20;;;;;;5024994;28;20038;-72
2021/07/06 07:33:48;;;;;;;2.95;1.10;;;21.50;68.60;;;;;;5025896;28;20041;-72
2021/07/06 07:36:14;;;;;;;4.95;1.38;;;21.60;68.50;;;;;;5024693;28;20072;-72
2021/07/06 07:38:40;;;;;;;15.85;4.47;;;21.80;69.10;;;;;;5024901;28;20034;-71
2021/07/06 07:41:05;;;;;;;6.25;1.88;;;21.90;70.50;;;;;;5025037;28;20030;-71
2021/07/06 07:43:31;;;;;;;3.35;1.30;;;22.10;71.10;;;;;;5025726;28;20068;-72
2021/07/06 07:45:56;;;;;;;4.68;1.23;;;22.20;68.20;;;;;;5025697;28;20022;-72
2021/07/06 07:48:22;;;;;;;4.18;1.23;;;22.30;68.10;;;;;;5025644;28;20049;-72
2021/07/06 07:50:48;;;;;;;13.25;2.95;;;22.40;66.10;;;;;;5026053;28;20030;-72
2021/07/06 07:53:13;;;;;;;1.88;0.93;;;22.50;66.30;;;;;;5025552;28;20364;-73
2021/07/06 07:55:39;;;;;;;1.75;1.00;;;22.60;64.10;;;;;;5024605;28;20097;-69
2021/07/06 07:58:05;;;;;;;7.15;1.70;;;22.70;65.00;;;;;;5041116;28;20026;-71
2021/07/06 08:00:30;;;;;;;3.75;0.82;;;22.70;68.30;;;;;;5024152;28;20033;-71
2021/07/06 08:02:59;;;;;;;2.70;1.05;;;22.80;64.50;;;;;;5026093;28;20037;-70
2021/07/06 08:05:25;;;;;;;1.92;1.00;;;22.90;65.50;;;;;;5024646;28;20061;-71
2021/07/06 08:07:50;;;;;;;2.33;0.93;;;23.00;65.00;;;;;;5023919;28;20034;-71
2021/07/06 08:10:16;;;;;;;2.35;1.30;;;23.20;60.60;;;;;;5024560;28;20206;-71
2021/07/06 08:12:42;;;;;;;2.97;0.88;;;23.20;63.00;;;;;;5024570;28;20030;-71
2021/07/06 08:15:08;;;;;;;1.63;0.98;;;23.30;61.90;;;;;;5025307;28;20038;-71
2021/07/06 08:17:33;;;;;;;1.67;1.05;;;23.50;60.30;;;;;;5008076;28;20369;-72
2021/07/06 08:19:59;;;;;;;5.55;1.48;;;23.60;62.40;;;;;;5023924;28;20060;-71
2021/07/06 08:22:26;;;;;;;2.30;0.85;;;23.70;67.20;;;;;;5040425;28;20073;-71
2021/07/06 08:24:52;;;;;;;5.25;1.20;;;23.90;62.80;;;;;;5024864;28;20026;-71
2021/07/06 08:27:18;;;;;;;2.85;0.90;;;23.90;61.50;;;;;;5041260;28;20186;-71
2021/07/06 08:29:43;;;;;;;2.80;0.98;;;23.90;62.10;;;;;;5024058;28;20030;-71
2021/07/06 08:32:09;;;;;;;3.15;0.80;;;24.00;60.50;;;;;;5025234;28;20054;-72
2021/07/06 08:34:34;;;;;;;1.45;0.88;;;24.00;58.90;;;;;;5024725;28;20041;-71
2021/07/06 08:37:06;;;;;;;1.13;0.88;;;24.10;61.00;;;;;;5024703;28;20045;-72
2021/07/06 08:39:31;;;;;;;1.70;0.77;;;24.20;58.80;;;;;;5007661;28;20190;-71
2021/07/06 08:41:57;;;;;;;2.10;0.90;;;24.30;57.90;;;;;;5024575;28;20065;-71
2021/07/06 08:44:23;;;;;;;4.75;1.00;;;24.30;59.00;;;;;;5040412;28;20037;-71
2021/07/06 08:46:49;;;;;;;1.33;0.90;;;24.40;59.70;;;;;;5023836;28;20236;-71
2021/07/06 08:49:16;;;;;;;3.17;1.00;;;24.50;60.30;;;;;;5022549;28;20097;-72
2021/07/06 08:51:42;;;;;;;3.00;0.93;;;24.50;60.70;;;;;;5024454;28;20092;-72
2021/07/06 08:54:08;;;;;;;2.00;0.95;;;24.90;63.50;;;;;;5024266;28;20191;-71
2021/07/06 08:56:33;;;;;;;1.50;0.80;;;24.90;60.20;;;;;;5024844;28;20081;-71
2021/07/06 08:58:59;;;;;;;1.17;0.73;;;25.00;56.70;;;;;;5023225;28;20037;-71
2021/07/06 09:01:28;;;;;;;2.38;0.70;;;25.30;56.80;;;;;;5023265;28;20029;-72
2021/07/06 09:03:56;;;;;;;2.85;0.60;;;25.40;55.70;;;;;;5024292;28;20033;-72
2021/07/06 09:06:22;;;;;;;1.45;0.70;;;25.60;53.70;;;;;;5024456;28;20029;-71
2021/07/06 09:08:53;;;;;;;1.20;0.80;;;25.70;52.60;;;;;;5023575;28;20338;-72
2021/07/06 09:11:20;;;;;;;2.05;0.80;;;25.90;54.70;;;;;;5023484;28;20036;-72
2021/07/06 09:13:45;;;;;;;1.33;0.80;;;25.80;53.90;;;;;;5023243;28;20076;-71
2021/07/06 09:16:26;;;;;;;3.00;1.00;;;25.80;56.00;;;;;;5022950;28;20229;-72
2021/07/06 09:18:51;;;;;;;3.38;0.80;;;26.00;53.90;;;;;;5007891;28;20092;-72
2021/07/06 09:21:17;;;;;;;0.98;0.63;;;26.10;53.80;;;;;;5024460;28;20058;-71
2021/07/06 09:23:48;;;;;;;2.15;0.73;;;26.10;53.30;;;;;;5039415;28;20050;-71
2021/07/06 09:26:15;;;;;;;1.05;0.77;;;26.20;53.90;;;;;;5023365;28;20092;-71
2021/07/06 09:28:54;;;;;;;2.13;0.70;;;26.30;54.10;;;;;;5023944;28;20101;-75
2021/07/06 09:31:21;;;;;;;2.78;0.70;;;26.50;53.80;;;;;;5023192;28;20260;-75
2021/07/06 09:34:07;;;;;;;3.58;0.90;;;26.50;53.90;;;;;;5023859;28;20045;-75
2021/07/06 09:36:35;;;;;;;1.83;1.10;;;26.70;53.40;;;;;;5023758;28;20041;-74
2021/07/06 09:39:04;;;;;;;1.25;0.85;;;26.70;54.90;;;;;;5024339;28;20040;-75
2021/07/06 09:41:30;;;;;;;1.50;0.80;;;26.80;54.90;;;;;;5024225;28;20088;-73
2021/07/06 09:44:01;;;;;;;1.40;0.80;;;26.90;53.80;;;;;;5023277;28;20044;-74
2021/07/06 09:46:26;;;;;;;2.33;0.88;;;26.90;58.00;;;;;;5022681;28;20159;-73
2021/07/06 09:48:59;;;;;;;2.65;0.93;;;27.00;57.00;;;;;;5023548;28;20030;-73
2021/07/06 09:51:24;;;;;;;1.50;0.90;;;27.20;50.90;;;;;;5022624;28;20048;-73
2021/07/06 09:53:51;;;;;;;1.95;0.80;;;27.30;51.60;;;;;;5024082;28;20282;-73
2021/07/06 09:56:18;;;;;;;1.45;0.90;;;27.30;51.40;;;;;;5022943;28;20034;-73
2021/07/06 09:58:59;;;;;;;2.60;0.90;;;27.40;52.00;;;;;;5022847;28;20089;-73
2021/07/06 10:01:25;;;;;;;;;;;27.40;50.70;;;;;;5027363;28;20033;-73
2021/07/06 10:03:51;;;;;;;2.92;0.90;;;27.40;54.60;;;;;;5026689;28;20149;-73
2021/07/06 10:06:24;;;;;;;4.25;1.00;;;27.60;49.50;;;;;;5027017;28;20050;-73
2021/07/06 10:08:50;;;;;;;3.78;0.80;;;27.80;51.20;;;;;;5027280;28;20205;-73
2021/07/06 10:11:16;;;;;;;4.00;0.80;;;27.80;50.70;;;;;;5026862;28;20034;-73
2021/07/06 10:13:41;;;;;;;3.53;0.85;;;27.90;50.00;;;;;;5026745;28;20058;-73
2021/07/06 10:16:07;;;;;;;1.17;0.70;;;28.00;51.30;;;;;;5027504;28;20065;-73
2021/07/06 10:18:33;;;;;;;1.77;0.70;;;28.10;48.50;;;;;;5027542;28;20026;-73
2021/07/06 10:20:59;;;;;;;1.23;0.60;;;28.30;47.40;;;;;;5027026;28;20041;-73
2021/07/06 10:23:25;;;;;;;4.10;0.70;;;28.30;47.40;;;;;;5026493;28;20363;-73
2021/07/06 10:25:55;;;;;;;2.13;0.63;;;28.30;48.00;;;;;;5026559;28;20034;-73
2021/07/06 10:28:21;;;;;;;0.88;0.52;;;28.40;47.00;;;;;;5026049;28;20037;-73
2021/07/06 10:30:47;;;;;;;1.17;0.57;;;28.50;44.00;;;;;;5026002;28;20211;-74
2021/07/06 10:33:27;;;;;;;4.20;0.98;;;28.50;48.80;;;;;;5010454;28;20087;-73
2021/07/06 10:35:53;;;;;;;2.22;0.80;;;28.60;46.80;;;;;;5026707;28;20317;-73
2021/07/06 10:38:28;;;;;;;1.90;0.77;;;28.70;47.70;;;;;;5025836;28;20026;-73
2021/07/06 10:41:01;;;;;;;1.40;0.80;;;28.90;45.80;;;;;;5026813;28;20161;-72
2021/07/06 10:43:42;;;;;;;0.85;0.60;;;28.90;47.20;;;;;;5026161;28;20221;-74
2021/07/06 10:46:20;;;;;;;1.30;0.70;;;29.00;45.40;;;;;;5011243;28;20034;-73
2021/07/06 10:48:46;;;;;;;0.80;0.63;;;29.00;44.30;;;;;;5026799;28;20025;-72
2021/07/06 10:51:33;;;;;;;0.90;0.70;;;29.00;44.90;;;;;;5027503;28;20034;-76
2021/07/06 10:54:05;;;;;;;5.57;0.88;;;29.10;45.60;;;;;;5027013;28;20037;-75
2021/07/06 10:56:31;;;;;;;2.90;0.88;;;29.10;44.90;;;;;;5027188;28;20030;-79
2021/07/06 10:58:58;;;;;;;1.70;0.60;;;29.30;46.00;;;;;;5042378;28;20352;-73
2021/07/06 11:01:36;;;;;;;1.10;0.70;;;29.30;45.80;;;;;;5014700;28;20030;-73
2021/07/06 11:04:05;;;;;;;2.80;0.60;;;29.50;45.10;;;;;;5026819;28;20040;-75
2021/07/06 11:06:46;;;;;;;1.52;0.60;;;29.50;44.00;;;;;;5042007;28;20101;-74
2021/07/06 11:09:17;;;;;;;;;;;29.50;43.30;;;;;;5027328;28;20029;-76
2021/07/06 11:11:43;;;;;;;1.02;0.60;;;29.70;45.60;;;;;;5025386;28;19912;-74
2021/07/06 11:14:21;;;;;;;1.13;0.60;;;29.70;45.60;;;;;;5025787;28;20034;-72
2021/07/06 11:17:05;;;;;;;1.75;0.60;;;29.70;44.10;;;;;;5025340;28;20030;-73
2021/07/06 11:19:44;;;;;;;2.17;0.60;;;29.60;45.00;;;;;;5026565;28;20056;-74
2021/07/06 11:22:13;;;;;;;4.00;0.75;;;29.70;43.10;;;;;;5025264;28;20363;-74
2021/07/06 11:24:42;;;;;;;2.00;0.60;;;29.70;47.80;;;;;;5008654;28;20217;-78
2021/07/06 11:27:08;;;;;;;1.48;0.70;;;29.80;45.60;;;;;;5009480;28;20026;-78
2021/07/06 11:29:35;;;;;;;0.90;0.50;;;29.80;47.40;;;;;;5025596;28;20037;-77
2021/07/06 11:32:08;;;;;;;2.45;0.55;;;29.90;46.70;;;;;;5025290;28;20053;-76
2021/07/06 11:34:37;;;;;;;1.30;0.60;;;29.90;43.40;;;;;;5025149;28;20034;-76
2021/07/06 11:37:10;;;;;;;3.55;0.70;;;30.00;43.90;;;;;;5025051;28;20026;-76
2021/07/06 11:39:36;;;;;;;2.40;0.60;;;30.10;45.10;;;;;;5000888;28;20297;-74
2021/07/06 11:42:05;;;;;;;0.93;0.60;;;30.30;44.50;;;;;;5025504;28;20021;-76
2021/07/06 11:44:30;;;;;;;1.05;0.60;;;30.20;43.70;;;;;;5022921;28;20041;-76
2021/07/06 11:47:12;;;;;;;2.00;0.60;;;30.30;44.60;;;;;;5024969;28;20046;-76
2021/07/06 11:49:39;;;;;;;2.95;0.60;;;30.40;44.10;;;;;;5024673;28;20045;-76
2021/07/06 11:52:04;;;;;;;0.90;0.65;;;30.40;43.80;;;;;;5010914;28;20045;-76
2021/07/06 11:54:30;;;;;;;5.80;0.60;;;30.50;43.70;;;;;;4991609;28;20036;-75
2021/07/06 11:57:06;;;;;;;2.08;0.60;;;30.50;43.60;;;;;;5024947;28;20080;-75
2021/07/06 11:59:32;;;;;;;1.02;0.65;;;30.60;44.70;;;;;;5025022;28;20041;-75
2021/07/06 12:02:17;;;;;;;1.58;0.60;;;30.70;42.60;;;;;;5008120;28;20077;-75
2021/07/06 12:04:43;;;;;;;0.65;0.50;;;30.70;46.90;;;;;;5007992;28;20038;-77
2021/07/06 12:07:10;;;;;;;0.93;0.50;;;30.70;45.20;;;;;;5024732;28;20097;-76
2021/07/06 12:09:36;;;;;;;1.60;0.60;;;30.80;44.70;;;;;;5024398;28;20037;-76
2021/07/06 12:12:15;;;;;;;0.95;0.60;;;30.90;45.00;;;;;;5024919;28;20037;-76
2021/07/06 12:14:50;;;;;;;1.05;0.60;;;30.80;43.30;;;;;;5024572;28;20034;-76
2021/07/06 12:17:42;;;;;;;0.82;0.57;;;30.90;47.10;;;;;;5008306;28;20109;-76
2021/07/06 12:20:15;;;;;;;2.45;0.60;;;31.00;44.70;;;;;;5005343;28;20026;-76
2021/07/06 12:22:41;;;;;;;1.20;0.60;;;30.90;45.10;;;;;;5024030;28;20065;-76
2021/07/06 12:25:07;;;;;;;1.48;0.60;;;30.90;43.70;;;;;;5024528;28;20030;-75
2021/07/06 12:27:33;;;;;;;2.25;0.60;;;30.90;41.40;;;;;;5023888;28;20018;-77
2021/07/06 12:30:04;;;;;;;1.20;0.70;;;31.00;45.00;;;;;;5024723;28;20021;-72
2021/07/06 12:32:30;;;;;;;2.60;0.70;;;31.00;41.80;;;;;;5025091;28;20041;-74
2021/07/06 12:34:57;;;;;;;1.38;0.60;;;31.00;42.10;;;;;;5007389;28;20025;-75
2021/07/06 12:37:26;;;;;;;3.28;0.60;;;31.20;42.80;;;;;;5012587;28;20034;-74
2021/07/06 12:39:55;;;;;;;1.23;0.50;;;31.20;39.30;;;;;;5023694;28;20034;-75
2021/07/06 12:42:22;;;;;;;1.42;0.50;;;31.10;43.60;;;;;;5024129;28;20032;-74
2021/07/06 12:44:52;;;;;;;1.40;0.60;;;31.00;43.30;;;;;;4975144;28;20325;-75
2021/07/06 12:47:37;;;;;;;2.15;0.60;;;30.80;41.70;;;;;;5007867;28;20313;-75
2021/07/06 12:50:08;;;;;;;1.17;0.75;;;30.70;41.30;;;;;;5007314;28;20033;-75